CGXMF CYQS-CYXU
Flight info
| Callsign | CGXMF |
|---|---|
| Flight time | 0h 4m |
| Altitude | |
| Route | |
| Aircraft |
Departure
| Time | 2026-05-07 00:45 |
|---|---|
| Airport | St Thomas Municipal Airport (CYQS) |
Arrival
| Time | 2026-05-07 00:49 |
|---|---|
| Airport | London International Airport (CYXU) |
| Time | Latitude | Longitude | Altitude | Speed | Heading |
|---|---|---|---|---|---|
| 2026-05-07 00:45 | 42.90251 | -81.12570 | 2125 ft | 90 kts | 354° |
| 2026-05-07 00:45 | 42.90881 | -81.12617 | 2060 ft | 93 kts | 355° |
| 2026-05-07 00:45 | 42.91536 | -81.12658 | 1978 ft | 94 kts | 355° |
| 2026-05-07 00:46 | 42.92181 | -81.12700 | 1922 ft | 92 kts | 355° |
| 2026-05-07 00:46 | 42.92837 | -81.12727 | 1826 ft | 93 kts | 358° |
| 2026-05-07 00:46 | 42.93465 | -81.12730 | 1825 ft | 89 kts | 3° |
| 2026-05-07 00:46 | 42.94093 | -81.12651 | 1760 ft | 90 kts | 4° |
| 2026-05-07 00:47 | 42.95102 | -81.12476 | 1837 ft | 84 kts | 6° |
| 2026-05-07 00:47 | 42.97345 | -81.12067 | 2113 ft | 84 kts | 7° |
| 2026-05-07 00:47 | 42.99236 | -81.11982 | 1903 ft | 93 kts | 356° |
| 2026-05-07 00:47 | 42.99833 | -81.12015 | 1772 ft | 81 kts | 354° |
| 2026-05-07 00:48 | 43.00379 | -81.12093 | 1636 ft | 77 kts | 346° |
| 2026-05-07 00:48 | 43.00907 | -81.12307 | 1489 ft | 85 kts | 339° |
| 2026-05-07 00:48 | 43.01477 | -81.12651 | 1272 ft | 90 kts | 322° |
| 2026-05-07 00:48 | 43.01914 | -81.13190 | 1096 ft | 80 kts | 314° |
| 2026-05-07 00:49 | 43.02300 | -81.13688 | 972 ft | 72 kts | 318° |
| 2026-05-07 00:49 | 43.02627 | -81.14085 | 899 ft | 53 kts | 319° |
| 2026-05-07 00:49 | 43.02846 | -81.14367 | 900 ft | 33 kts | 315° |
| 2026-05-07 00:49 | 43.02925 | -81.14467 | 898 ft | 9 kts | 307° |
| 2026-05-07 00:50 | 43.02958 | -81.14534 | 898 ft | 5 kts | 280° |
| 2026-05-07 00:50 | 43.02939 | -81.14583 | 897 ft | 6 kts | 222° |
| 2026-05-07 00:50 | 43.02915 | -81.14622 | 896 ft | 5 kts | 231° |
| 2026-05-07 00:50 | 43.02920 | -81.14614 | 896 ft | 0 kts | 227° |
| 2026-05-07 00:51 | 43.02910 | -81.14631 | 896 ft | 8 kts | 233° |
| 2026-05-07 00:51 | 43.02914 | -81.14748 | 896 ft | 20 kts | 313° |
| 2026-05-07 00:51 | 43.03036 | -81.14896 | 895 ft | 24 kts | 329° |